createdAt,value
2019-04-05T00:01:47.067Z,70.90
2019-04-05T00:04:15.803Z,71.00
2019-04-05T00:06:44.507Z,71.40
2019-04-05T00:09:13.264Z,71.30
2019-04-05T00:11:42.242Z,71.20
2019-04-05T00:14:11.097Z,71.30
2019-04-05T00:16:39.825Z,71.40
2019-04-05T00:19:08.542Z,71.60
2019-04-05T00:21:37.258Z,71.60
2019-04-05T00:24:06.009Z,71.60
2019-04-05T00:26:34.798Z,71.50
2019-04-05T00:29:03.597Z,71.90
2019-04-05T00:31:32.350Z,71.80
2019-04-05T00:34:01.201Z,71.90
2019-04-05T00:36:29.924Z,71.70
2019-04-05T00:38:58.663Z,71.00
2019-04-05T00:41:27.351Z,72.30
2019-04-05T00:43:56.154Z,72.20
2019-04-05T00:46:24.881Z,72.20
2019-04-05T00:48:53.639Z,72.40
2019-04-05T00:51:22.705Z,72.50
2019-04-05T00:53:51.577Z,73.30
2019-04-05T00:56:27.022Z,72.20
2019-04-05T00:58:55.742Z,71.50
2019-04-05T01:01:24.458Z,72.20
2019-04-05T01:03:53.221Z,72.30
2019-04-05T01:06:21.989Z,72.60
2019-04-05T01:08:50.848Z,72.20
2019-04-05T01:11:19.802Z,72.20
2019-04-05T01:13:49.750Z,72.20
2019-04-05T01:16:18.547Z,72.90
2019-04-05T01:18:47.325Z,72.70
2019-04-05T01:21:20.387Z,72.90
2019-04-05T01:23:49.867Z,72.90
2019-04-05T01:26:21.395Z,72.80
2019-04-05T01:28:50.291Z,72.30
2019-04-05T01:31:19.085Z,72.00
2019-04-05T01:33:47.790Z,71.90
2019-04-05T01:36:28.533Z,71.90
2019-04-05T01:38:57.271Z,71.50
2019-04-05T01:41:26.237Z,71.70
2019-04-05T01:43:54.949Z,72.00
2019-04-05T01:46:23.852Z,72.10
2019-04-05T01:48:52.577Z,72.20
2019-04-05T01:51:21.426Z,72.20
2019-04-05T01:53:50.293Z,72.20
2019-04-05T01:56:19.087Z,72.20
2019-04-05T01:58:47.820Z,72.90
2019-04-05T02:01:16.761Z,72.40
2019-04-05T02:03:45.609Z,72.40
2019-04-05T02:06:14.577Z,72.40
2019-04-05T02:08:43.445Z,72.30
2019-04-05T02:11:12.225Z,72.40
2019-04-05T02:13:41.292Z,72.60
2019-04-05T02:16:10.251Z,72.50
2019-04-05T02:18:39.113Z,72.60
2019-04-05T02:21:08.067Z,72.30
2019-04-05T02:23:36.883Z,72.60
2019-04-05T02:26:05.789Z,72.60
2019-04-05T02:28:34.630Z,72.40
2019-04-05T02:31:03.546Z,72.60
2019-04-05T02:33:32.565Z,72.60
2019-04-05T02:36:01.436Z,72.50
2019-04-05T02:38:30.171Z,72.60
2019-04-05T02:41:00.740Z,72.70
2019-04-05T02:43:32.194Z,72.70
2019-04-05T02:46:03.659Z,73.00
2019-04-05T02:48:35.877Z,72.30
2019-04-05T02:51:06.349Z,72.70
2019-04-05T02:53:36.579Z,73.00
2019-04-05T02:56:06.645Z,73.30
2019-04-05T02:58:36.630Z,72.80
2019-04-05T03:01:05.782Z,72.50
2019-04-05T03:03:34.948Z,72.60
2019-04-05T03:06:04.330Z,72.70
2019-04-05T03:08:33.334Z,72.90
2019-04-05T03:11:08.390Z,72.80
2019-04-05T03:13:41.682Z,72.80
2019-04-05T03:16:15.806Z,72.70
2019-04-05T03:18:49.931Z,73.00
2019-04-05T03:21:21.593Z,72.60
2019-04-05T03:23:52.082Z,72.60
2019-04-05T03:26:23.934Z,72.80
2019-04-05T03:28:55.770Z,72.80
2019-04-05T03:31:25.761Z,72.70
2019-04-05T03:33:55.483Z,72.90
2019-04-05T03:36:24.475Z,72.90
2019-04-05T03:38:53.376Z,72.80
2019-04-05T03:41:23.221Z,72.70
2019-04-05T03:43:52.064Z,72.80
2019-04-05T03:46:21.306Z,72.80
2019-04-05T03:48:50.433Z,72.80
2019-04-05T03:51:19.701Z,73.00
2019-04-05T03:53:48.551Z,72.90
2019-04-05T03:56:17.487Z,73.00
2019-04-05T03:58:47.065Z,73.10
2019-04-05T04:01:15.923Z,72.60
2019-04-05T04:03:45.091Z,72.20
2019-04-05T04:06:14.432Z,72.00
2019-04-05T04:08:43.310Z,71.80
2019-04-05T04:11:12.158Z,71.60
2019-04-05T04:13:41.457Z,71.90
2019-04-05T04:16:10.454Z,72.00
2019-04-05T04:18:39.710Z,71.90
2019-04-05T04:21:32.005Z,71.90
2019-04-05T04:24:01.200Z,71.60
2019-04-05T04:26:31.023Z,71.90
2019-04-05T04:28:59.842Z,72.20
2019-04-05T04:31:28.682Z,72.40
2019-04-05T04:33:57.787Z,72.40
2019-04-05T04:36:26.666Z,72.50
2019-04-05T04:38:55.803Z,72.60
2019-04-05T04:41:24.694Z,72.60
2019-04-05T04:43:54.294Z,72.30
2019-04-05T04:46:23.090Z,72.50
2019-04-05T04:48:52.264Z,72.60
2019-04-05T04:51:21.428Z,72.70
2019-04-05T04:53:50.510Z,72.90
2019-04-05T04:56:19.471Z,73.00
2019-04-05T04:58:48.274Z,73.00
2019-04-05T05:01:17.325Z,73.10
2019-04-05T05:03:46.230Z,73.20
2019-04-05T05:06:15.030Z,73.00
2019-04-05T05:08:43.837Z,73.20
2019-04-05T05:11:14.647Z,73.20
2019-04-05T05:13:43.229Z,73.90
2019-04-05T05:16:12.045Z,73.20
2019-04-05T05:18:41.109Z,73.20
2019-04-05T05:21:10.345Z,73.20
2019-04-05T05:23:40.121Z,73.10
2019-04-05T05:26:09.386Z,73.20
2019-04-05T05:28:38.253Z,73.30
2019-04-05T05:31:07.365Z,74.20
2019-04-05T05:33:36.285Z,73.40
2019-04-05T05:36:05.181Z,73.30
2019-04-05T05:38:34.053Z,73.80
2019-04-05T05:41:02.959Z,73.10
2019-04-05T05:43:31.762Z,73.10
2019-04-05T05:46:00.644Z,73.10
2019-04-05T05:48:30.956Z,73.30
2019-04-05T05:51:00.485Z,74.00
2019-04-05T05:53:29.221Z,73.30
2019-04-05T05:55:57.923Z,73.40
2019-04-05T05:58:26.649Z,73.70
2019-04-05T06:00:55.467Z,74.00
2019-04-05T06:03:24.249Z,74.10
2019-04-05T06:06:03.601Z,74.40
2019-04-05T06:08:23.578Z,74.40
2019-04-05T06:10:52.277Z,74.60
2019-04-05T06:13:21.006Z,75.00
2019-04-05T06:15:49.730Z,75.00
2019-04-05T06:18:18.437Z,75.20
2019-04-05T06:20:47.195Z,75.60
2019-04-05T06:23:15.905Z,75.70
2019-04-05T06:25:44.677Z,76.00
2019-04-05T06:28:13.428Z,76.20
2019-04-05T06:30:42.186Z,76.40
2019-04-05T06:33:10.965Z,76.50
2019-04-05T06:35:39.781Z,76.60
2019-04-05T06:38:08.522Z,76.80
2019-04-05T06:40:40.939Z,76.70
2019-04-05T06:43:07.745Z,76.70
2019-04-05T06:45:36.518Z,76.60
2019-04-05T06:48:18.521Z,76.70
2019-04-05T06:50:35.873Z,77.00
2019-04-05T06:53:04.685Z,76.90
2019-04-05T06:55:33.833Z,76.90
2019-04-05T06:58:02.579Z,77.10
2019-04-05T07:00:31.468Z,77.50
2019-04-05T07:03:00.396Z,77.60
2019-04-05T07:05:29.203Z,77.80
2019-04-05T07:07:58.073Z,77.90
2019-04-05T07:10:26.753Z,78.10
2019-04-05T07:12:55.644Z,78.20
2019-04-05T07:15:24.365Z,78.30
2019-04-05T07:17:53.258Z,78.50
2019-04-05T07:20:23.790Z,78.50
2019-04-05T07:22:52.462Z,78.60
2019-04-05T07:25:21.254Z,78.90
2019-04-05T07:27:50.053Z,79.00
2019-04-05T07:30:18.939Z,79.10
2019-04-05T07:32:47.660Z,79.30
2019-04-05T07:35:16.394Z,79.20
2019-04-05T07:37:45.198Z,79.40
2019-04-05T07:40:14.277Z,79.70
2019-04-05T07:42:43.013Z,79.80
2019-04-05T07:45:12.586Z,79.80
2019-04-05T07:47:41.297Z,79.40
2019-04-05T07:50:10.899Z,79.30
2019-04-05T07:52:39.586Z,79.00
2019-04-05T07:55:08.557Z,79.10
2019-04-05T07:57:37.481Z,78.80
2019-04-05T08:00:07.666Z,78.60
2019-04-05T08:02:36.494Z,78.50
2019-04-05T08:05:06.454Z,78.30
2019-04-05T08:07:38.879Z,77.10
2019-04-05T08:10:08.157Z,76.70
2019-04-05T08:12:37.774Z,76.70
2019-04-05T08:15:06.869Z,76.50
2019-04-05T08:17:35.602Z,76.40
2019-04-05T08:20:04.965Z,76.20
2019-04-05T08:22:33.683Z,76.10
2019-04-05T08:25:02.387Z,75.30
2019-04-05T08:27:31.164Z,75.40
2019-04-05T08:30:00.009Z,75.20
2019-04-05T08:32:28.793Z,74.40
2019-04-05T08:34:57.525Z,74.00
2019-04-05T08:37:26.257Z,74.10
2019-04-05T08:39:54.989Z,73.20
2019-04-05T08:42:24.082Z,72.20
2019-04-05T08:44:52.770Z,70.50
2019-04-05T08:47:22.615Z,70.90
2019-04-05T08:49:51.649Z,71.50
2019-04-05T08:52:20.455Z,70.40
2019-04-05T08:54:49.241Z,70.10
2019-04-05T08:57:18.005Z,70.40
2019-04-05T08:59:46.748Z,70.00
2019-04-05T09:02:15.591Z,69.40
2019-04-05T09:04:44.342Z,68.60
2019-04-05T09:07:13.041Z,69.20
2019-04-05T09:09:41.755Z,68.20
2019-04-05T09:12:10.530Z,66.00
2019-04-05T09:14:39.285Z,66.80
2019-04-05T09:17:07.999Z,66.90
2019-04-05T09:19:36.729Z,65.60
2019-04-05T09:22:05.659Z,65.80
2019-04-05T09:24:34.496Z,65.60
2019-04-05T09:27:03.323Z,65.40
2019-04-05T09:29:32.151Z,64.50
2019-04-05T09:32:00.990Z,64.40
2019-04-05T09:34:29.781Z,63.40
2019-04-05T09:36:58.564Z,64.20
2019-04-05T09:39:27.293Z,64.40
2019-04-05T09:41:56.134Z,63.20
2019-04-05T09:44:24.859Z,62.90
2019-04-05T09:46:53.635Z,63.60
2019-04-05T09:49:22.381Z,63.00
2019-04-05T09:51:51.197Z,62.00
2019-04-05T09:54:21.570Z,63.00
2019-04-05T09:56:50.330Z,61.80
2019-04-05T09:59:19.165Z,62.00
2019-04-05T10:01:47.913Z,62.10
2019-04-05T10:04:16.646Z,61.30
2019-04-05T10:06:45.351Z,61.20
2019-04-05T10:09:14.377Z,60.90
2019-04-05T10:11:43.207Z,60.10
2019-04-05T10:14:11.955Z,59.90
2019-04-05T10:16:40.657Z,60.30
2019-04-05T10:19:09.417Z,59.80
2019-04-05T10:21:38.209Z,59.50
2019-04-05T10:24:07.116Z,59.70
2019-04-05T10:26:35.833Z,59.50
2019-04-05T10:29:04.723Z,59.50
2019-04-05T10:31:33.414Z,59.40
2019-04-05T10:34:02.144Z,57.70
2019-04-05T10:36:30.865Z,58.00
2019-04-05T10:38:59.617Z,58.20
2019-04-05T10:41:28.537Z,58.90
2019-04-05T10:43:58.530Z,58.40
2019-04-05T10:46:27.361Z,57.90
2019-04-05T10:48:56.081Z,58.20
2019-04-05T10:51:24.793Z,58.20
2019-04-05T10:53:53.526Z,58.20
2019-04-05T10:56:22.333Z,57.60
2019-04-05T10:58:51.041Z,56.90
2019-04-05T11:01:19.797Z,56.10
2019-04-05T11:03:48.515Z,55.80
2019-04-05T11:06:17.237Z,56.90
2019-04-05T11:08:45.955Z,56.10
2019-04-05T11:11:14.742Z,56.40
2019-04-05T11:13:43.474Z,56.30
2019-04-05T11:16:12.305Z,55.70
2019-04-05T11:18:41.125Z,54.30
2019-04-05T11:21:09.827Z,55.00
2019-04-05T11:23:38.573Z,54.50
2019-04-05T11:26:07.374Z,53.90
2019-04-05T11:28:36.098Z,54.60
2019-04-05T11:31:05.053Z,54.50
2019-04-05T11:33:33.915Z,54.30
2019-04-05T11:36:02.785Z,53.40
2019-04-05T11:38:31.655Z,53.80
2019-04-05T11:41:00.621Z,53.70
2019-04-05T11:43:32.339Z,53.80
2019-04-05T11:46:20.457Z,52.40
2019-04-05T11:48:49.326Z,49.70
2019-04-05T11:51:18.124Z,53.20
2019-04-05T11:53:46.868Z,52.80
2019-04-05T11:56:19.780Z,51.90
2019-04-05T11:58:48.879Z,53.40
2019-04-05T12:01:23.632Z,53.30
2019-04-05T12:03:52.588Z,52.80
2019-04-05T12:06:21.325Z,53.20
2019-04-05T12:08:50.228Z,53.30
2019-04-05T12:11:19.022Z,53.10
2019-04-05T12:13:47.910Z,52.40
2019-04-05T12:16:16.784Z,52.60
2019-04-05T12:18:45.519Z,52.60
2019-04-05T12:21:14.234Z,52.00
2019-04-05T12:23:42.999Z,52.10
2019-04-05T12:26:11.798Z,52.20
2019-04-05T12:28:40.497Z,52.50
2019-04-05T12:31:09.250Z,51.60
2019-04-05T12:33:37.969Z,52.20
2019-04-05T12:36:06.909Z,52.10
2019-04-05T12:38:35.656Z,52.60
2019-04-05T12:41:05.057Z,52.30
2019-04-05T12:43:33.941Z,51.70
2019-04-05T12:46:03.005Z,51.90
2019-04-05T12:48:31.828Z,52.40
2019-04-05T12:51:01.681Z,52.70
2019-04-05T12:53:31.023Z,52.70
2019-04-05T12:55:59.861Z,52.70
2019-04-05T12:58:28.597Z,52.00
2019-04-05T13:00:57.310Z,52.00
2019-04-05T13:03:26.089Z,52.50
2019-04-05T13:05:57.083Z,52.20
2019-04-05T13:08:25.285Z,51.90
2019-04-05T13:10:55.859Z,52.40
2019-04-05T13:13:26.845Z,52.30
2019-04-05T13:15:55.153Z,52.30
2019-04-05T13:18:25.329Z,52.10
2019-04-05T13:20:54.275Z,52.00
2019-04-05T13:23:23.045Z,51.00
2019-04-05T13:25:51.747Z,51.50
2019-04-05T13:28:20.562Z,51.20
2019-04-05T13:30:49.440Z,50.60
2019-04-05T13:33:18.193Z,51.10
2019-04-05T13:35:46.906Z,51.20
2019-04-05T13:38:15.698Z,51.10
2019-04-05T13:40:44.490Z,50.80
2019-04-05T13:43:13.200Z,51.00
2019-04-05T13:45:42.030Z,51.90
2019-04-05T13:48:11.439Z,52.00
2019-04-05T13:50:41.650Z,51.70
2019-04-05T13:53:11.351Z,51.70
2019-04-05T13:55:41.401Z,51.20
2019-04-05T13:58:11.305Z,51.10
2019-04-05T14:00:40.772Z,50.40
2019-04-05T14:03:09.558Z,51.00
2019-04-05T14:05:38.291Z,51.00
2019-04-05T14:08:10.287Z,50.80
2019-04-05T14:10:37.486Z,51.50
2019-04-05T14:13:07.632Z,52.20
2019-04-05T14:15:36.939Z,52.20
2019-04-05T14:18:05.798Z,50.60
2019-04-05T14:20:34.609Z,50.80
2019-04-05T14:23:03.466Z,51.10
2019-04-05T14:25:32.266Z,51.40
2019-04-05T14:28:02.513Z,51.30
2019-04-05T14:30:33.080Z,51.20
2019-04-05T14:33:02.051Z,51.20
2019-04-05T14:35:30.771Z,51.20
2019-04-05T14:38:01.661Z,51.50
2019-04-05T14:40:49.622Z,52.30
2019-04-05T14:43:21.171Z,51.70
2019-04-05T14:45:49.026Z,51.40
2019-04-05T14:48:17.823Z,50.70
2019-04-05T14:50:46.625Z,50.90
2019-04-05T14:53:15.468Z,50.80
2019-04-05T14:55:44.276Z,50.40
2019-04-05T14:58:13.082Z,50.00
2019-04-05T15:00:41.973Z,49.70
2019-04-05T15:03:10.673Z,49.70
2019-04-05T15:05:39.429Z,49.40
2019-04-05T15:08:08.165Z,48.90
2019-04-05T15:10:36.877Z,49.30
2019-04-05T15:13:05.709Z,49.30
2019-04-05T15:15:34.517Z,49.40
2019-04-05T15:18:03.233Z,49.60
2019-04-05T15:20:32.688Z,49.10
2019-04-05T15:23:02.673Z,48.60
2019-04-05T15:25:31.686Z,48.00
2019-04-05T15:28:00.457Z,47.90
2019-04-05T15:30:29.357Z,48.40
2019-04-05T15:32:59.718Z,48.50
2019-04-05T15:35:28.784Z,48.70
2019-04-05T15:38:01.338Z,48.80
2019-04-05T15:40:28.735Z,49.30
2019-04-05T15:42:58.949Z,48.90
2019-04-05T15:45:27.732Z,48.70
2019-04-05T15:47:56.473Z,48.70
2019-04-05T15:50:25.297Z,48.70
2019-04-05T15:52:54.329Z,49.10
2019-04-05T15:55:23.121Z,49.30
2019-04-05T15:57:51.877Z,50.00
2019-04-05T16:00:28.822Z,51.60
2019-04-05T16:02:57.558Z,51.20
2019-04-05T16:05:26.360Z,51.10
2019-04-05T16:07:55.180Z,50.90
2019-04-05T16:10:23.933Z,49.80
2019-04-05T16:12:52.645Z,49.00
2019-04-05T16:15:21.384Z,48.90
2019-04-05T16:17:50.129Z,48.70
2019-04-05T16:20:19.400Z,48.60
2019-04-05T16:22:48.110Z,49.60
2019-04-05T16:25:17.035Z,50.20
2019-04-05T16:27:45.854Z,50.70
2019-04-05T16:30:14.946Z,50.10
2019-04-05T16:32:43.680Z,50.70
2019-04-05T16:35:14.605Z,50.80
2019-04-05T16:37:43.009Z,51.40
2019-04-05T16:40:11.897Z,51.50
2019-04-05T16:42:40.643Z,51.70
2019-04-05T16:45:11.251Z,52.10
2019-04-05T16:47:40.043Z,52.10
2019-04-05T16:50:09.819Z,51.90
2019-04-05T16:52:44.649Z,52.00
2019-04-05T16:55:09.356Z,52.00
2019-04-05T16:57:38.169Z,52.30
2019-04-05T17:00:08.905Z,52.60
2019-04-05T17:02:37.675Z,52.70
2019-04-05T17:05:06.666Z,53.10
2019-04-05T17:07:35.411Z,53.50
2019-04-05T17:10:14.290Z,53.70
2019-04-05T17:12:43.690Z,53.60
2019-04-05T17:15:12.571Z,53.00
2019-04-05T17:17:41.303Z,53.90
2019-04-05T17:20:10.254Z,54.20
2019-04-05T17:22:38.999Z,54.50
2019-04-05T17:25:07.884Z,54.60
2019-04-05T17:27:36.657Z,54.80
2019-04-05T17:30:05.826Z,55.10
2019-04-05T17:32:34.561Z,55.20
2019-04-05T17:35:03.439Z,55.30
2019-04-05T17:37:32.245Z,55.50
2019-04-05T17:40:01.059Z,55.70
2019-04-05T17:42:29.889Z,55.80
2019-04-05T17:44:58.712Z,56.20
2019-04-05T17:47:27.431Z,56.20
2019-04-05T17:49:56.141Z,56.10
2019-04-05T17:52:24.968Z,56.30
2019-04-05T17:54:53.773Z,56.10
2019-04-05T17:57:22.684Z,56.40
2019-04-05T17:59:51.534Z,56.00
2019-04-05T18:02:20.325Z,56.70
2019-04-05T18:04:49.121Z,56.90
2019-04-05T18:07:17.825Z,56.80
2019-04-05T18:09:46.760Z,56.70
2019-04-05T18:12:15.490Z,57.10
2019-04-05T18:14:44.211Z,57.20
2019-04-05T18:17:12.961Z,57.20
2019-04-05T18:19:42.440Z,57.50
2019-04-05T18:22:11.235Z,57.50
2019-04-05T18:24:40.001Z,57.80
2019-04-05T18:27:08.801Z,57.80
2019-04-05T18:29:37.529Z,58.10
2019-04-05T18:32:06.342Z,58.10
2019-04-05T18:34:35.077Z,58.20
2019-04-05T18:37:03.969Z,58.40
2019-04-05T18:39:32.669Z,58.60
2019-04-05T18:42:01.377Z,58.80
2019-04-05T18:44:30.096Z,58.90
2019-04-05T18:46:58.902Z,59.10
2019-04-05T18:49:27.621Z,59.40
2019-04-05T18:51:56.350Z,59.60
2019-04-05T18:54:25.153Z,59.90
2019-04-05T18:56:53.944Z,60.20
2019-04-05T18:59:22.653Z,60.50
2019-04-05T19:01:51.398Z,60.80
2019-04-05T19:04:20.177Z,61.10
2019-04-05T19:06:49.058Z,61.10
2019-04-05T19:09:17.973Z,61.30
2019-04-05T19:11:46.804Z,61.70
2019-04-05T19:14:15.587Z,61.70
2019-04-05T19:16:44.322Z,62.70
2019-04-05T19:19:17.650Z,62.20
2019-04-05T19:21:45.018Z,62.40
2019-04-05T19:24:13.753Z,62.50
2019-04-05T19:26:42.538Z,62.80
2019-04-05T19:29:11.234Z,63.00
2019-04-05T19:49:15.842Z,63.70
2019-04-05T19:51:44.573Z,63.70
2019-04-05T19:54:13.344Z,63.90
2019-04-05T19:56:42.172Z,63.80
2019-04-05T19:59:10.942Z,63.40
2019-04-05T20:01:39.705Z,63.30
2019-04-05T20:04:08.438Z,63.50
2019-04-05T20:06:37.200Z,63.50
2019-04-05T20:09:07.798Z,63.80
2019-04-05T20:11:36.563Z,64.00
2019-04-05T20:14:05.469Z,63.90
2019-04-05T20:16:34.185Z,64.20
2019-04-05T20:19:02.910Z,64.30
2019-04-05T20:21:31.709Z,64.30
2019-04-05T20:24:05.789Z,64.50
2019-04-05T20:26:30.958Z,64.60
2019-04-05T20:28:59.746Z,64.70
2019-04-05T20:31:28.468Z,64.70
2019-04-05T20:33:57.246Z,64.80
2019-04-05T20:36:25.999Z,64.80
2019-04-05T20:38:54.739Z,65.00
2019-04-05T20:41:25.549Z,65.00
2019-04-05T20:44:00.107Z,65.10
2019-04-05T20:46:28.827Z,64.10
2019-04-05T20:48:57.565Z,65.30
2019-04-05T20:51:26.375Z,65.50
2019-04-05T20:53:55.177Z,65.60
2019-04-05T20:56:23.975Z,65.90
2019-04-05T20:58:52.818Z,65.90
2019-04-05T21:01:21.541Z,65.80
2019-04-05T21:03:50.250Z,65.80
2019-04-05T21:06:18.975Z,66.10
2019-04-05T21:08:47.713Z,66.10
2019-04-05T21:11:16.447Z,66.10
2019-04-05T21:13:45.239Z,66.20
2019-04-05T21:16:14.042Z,66.30
2019-04-05T21:18:42.780Z,66.50
2019-04-05T21:21:11.667Z,66.40
2019-04-05T21:23:40.446Z,66.50
2019-04-05T21:26:09.811Z,66.70
2019-04-05T21:28:38.601Z,66.50
2019-04-05T21:31:07.431Z,67.10
2019-04-05T21:33:36.240Z,67.20
2019-04-05T21:36:05.440Z,67.00
2019-04-05T21:38:34.308Z,67.10
2019-04-05T21:41:03.084Z,66.80
2019-04-05T21:43:31.878Z,67.40
2019-04-05T21:46:00.902Z,67.40
2019-04-05T21:48:32.870Z,67.50
2019-04-05T21:51:01.921Z,67.60
2019-04-05T21:53:30.804Z,67.70
2019-04-05T21:55:59.750Z,67.90
2019-04-05T21:58:28.562Z,68.10
2019-04-05T22:01:03.263Z,68.20
2019-04-05T22:03:32.052Z,68.20
2019-04-05T22:06:00.912Z,68.20
2019-04-05T22:08:29.675Z,68.60
2019-04-05T22:10:58.555Z,68.70
2019-04-05T22:13:27.714Z,68.80
2019-04-05T22:15:56.517Z,68.90
2019-04-05T22:18:25.465Z,69.00
2019-04-05T22:20:54.316Z,69.10
2019-04-05T22:23:24.185Z,69.00
2019-04-05T22:25:53.082Z,69.00
2019-04-05T22:28:21.956Z,69.60
2019-04-05T22:30:50.765Z,69.50
2019-04-05T22:33:19.672Z,69.60
2019-04-05T22:35:48.465Z,69.70
2019-04-05T22:38:17.261Z,69.70
2019-04-05T22:40:46.146Z,69.70
2019-04-05T22:43:14.933Z,69.80
2019-04-05T22:45:43.728Z,69.80
2019-04-05T22:48:12.716Z,70.00
2019-04-05T22:50:41.514Z,69.80
2019-04-05T22:53:10.392Z,70.10
2019-04-05T22:55:39.248Z,70.20
2019-04-05T22:58:08.104Z,70.30
2019-04-05T23:00:36.899Z,70.20
2019-04-05T23:03:08.881Z,70.30
2019-04-05T23:05:37.660Z,70.20
2019-04-05T23:08:06.474Z,70.40
2019-04-05T23:10:35.381Z,70.60
2019-04-05T23:13:04.225Z,71.10
2019-04-05T23:15:33.020Z,70.50
2019-04-05T23:18:02.016Z,71.10
2019-04-05T23:20:30.812Z,71.00
2019-04-05T23:22:59.687Z,70.80
2019-04-05T23:25:28.685Z,71.20
2019-04-05T23:27:57.518Z,71.10
2019-04-05T23:30:27.486Z,71.30
2019-04-05T23:32:56.332Z,71.40
2019-04-05T23:35:25.183Z,71.70
2019-04-05T23:37:54.061Z,71.70
2019-04-05T23:40:22.871Z,71.90
2019-04-05T23:42:51.728Z,72.90
2019-04-05T23:45:20.529Z,72.20
2019-04-05T23:47:49.358Z,72.30
2019-04-05T23:50:18.224Z,73.20
2019-04-05T23:52:47.451Z,72.60
2019-04-05T23:55:16.316Z,72.60
2019-04-05T23:57:45.191Z,72.60
